sensor_id;sensor_type;location;lat;lon;timestamp;temperature;humidity
9425;DHT22;17139;52.140;11.636;2022-07-06T00:01:19;17.80;40.00
9425;DHT22;17139;52.140;11.636;2022-07-06T00:03:46;17.60;38.60
9425;DHT22;17139;52.140;11.636;2022-07-06T00:06:13;17.30;39.20
9425;DHT22;17139;52.140;11.636;2022-07-06T00:08:44;17.20;38.60
9425;DHT22;17139;52.140;11.636;2022-07-06T00:11:11;17.20;38.80
9425;DHT22;17139;52.140;11.636;2022-07-06T00:13:38;17.20;38.80
9425;DHT22;17139;52.140;11.636;2022-07-06T00:16:05;17.20;38.90
9425;DHT22;17139;52.140;11.636;2022-07-06T00:18:32;17.20;38.80
9425;DHT22;17139;52.140;11.636;2022-07-06T00:20:59;17.20;38.90
9425;DHT22;17139;52.140;11.636;2022-07-06T00:23:26;17.10;38.90
9425;DHT22;17139;52.140;11.636;2022-07-06T00:25:54;17.20;39.80
9425;DHT22;17139;52.140;11.636;2022-07-06T00:28:21;17.10;39.30
9425;DHT22;17139;52.140;11.636;2022-07-06T00:30:48;17.00;39.20
9425;DHT22;17139;52.140;11.636;2022-07-06T00:33:15;16.90;39.20
9425;DHT22;17139;52.140;11.636;2022-07-06T00:35:42;16.80;39.20
9425;DHT22;17139;52.140;11.636;2022-07-06T00:38:09;16.80;39.50
9425;DHT22;17139;52.140;11.636;2022-07-06T00:40:36;16.70;39.40
9425;DHT22;17139;52.140;11.636;2022-07-06T00:43:04;16.70;39.50
9425;DHT22;17139;52.140;11.636;2022-07-06T00:45:31;16.70;39.60
9425;DHT22;17139;52.140;11.636;2022-07-06T00:47:58;16.60;39.70
9425;DHT22;17139;52.140;11.636;2022-07-06T00:50:26;16.60;39.70
9425;DHT22;17139;52.140;11.636;2022-07-06T00:52:55;16.50;39.50
9425;DHT22;17139;52.140;11.636;2022-07-06T00:55:24;16.50;39.50
9425;DHT22;17139;52.140;11.636;2022-07-06T00:57:51;16.50;39.80
9425;DHT22;17139;52.140;11.636;2022-07-06T01:00:22;16.80;41.30
9425;DHT22;17139;52.140;11.636;2022-07-06T01:02:50;16.80;40.10
9425;DHT22;17139;52.140;11.636;2022-07-06T01:05:17;16.60;39.80
9425;DHT22;17139;52.140;11.636;2022-07-06T01:07:46;16.60;40.30
9425;DHT22;17139;52.140;11.636;2022-07-06T01:10:14;16.50;40.20
9425;DHT22;17139;52.140;11.636;2022-07-06T01:12:43;16.50;40.10
9425;DHT22;17139;52.140;11.636;2022-07-06T01:15:11;16.50;40.00
9425;DHT22;17139;52.140;11.636;2022-07-06T01:17:40;16.40;40.10
9425;DHT22;17139;52.140;11.636;2022-07-06T01:20:11;16.40;40.20
9425;DHT22;17139;52.140;11.636;2022-07-06T01:22:38;16.40;40.20
9425;DHT22;17139;52.140;11.636;2022-07-06T01:25:06;16.30;40.20
9425;DHT22;17139;52.140;11.636;2022-07-06T01:27:34;16.30;40.10
9425;DHT22;17139;52.140;11.636;2022-07-06T01:30:04;16.30;40.30
9425;DHT22;17139;52.140;11.636;2022-07-06T01:32:31;16.30;40.20
9425;DHT22;17139;52.140;11.636;2022-07-06T01:34:59;16.80;42.20
9425;DHT22;17139;52.140;11.636;2022-07-06T01:37:27;16.70;40.50
9425;DHT22;17139;52.140;11.636;2022-07-06T01:39:58;16.50;40.40
9425;DHT22;17139;52.140;11.636;2022-07-06T01:42:25;16.60;41.50
9425;DHT22;17139;52.140;11.636;2022-07-06T01:44:52;16.50;40.50
9425;DHT22;17139;52.140;11.636;2022-07-06T01:47:19;16.40;40.40
9425;DHT22;17139;52.140;11.636;2022-07-06T01:49:46;16.30;40.50
9425;DHT22;17139;52.140;11.636;2022-07-06T01:52:14;16.10;40.50
9425;DHT22;17139;52.140;11.636;2022-07-06T01:54:42;16.10;40.60
9425;DHT22;17139;52.140;11.636;2022-07-06T01:57:10;16.00;40.70
9425;DHT22;17139;52.140;11.636;2022-07-06T01:59:37;15.90;40.60
9425;DHT22;17139;52.140;11.636;2022-07-06T02:02:04;15.80;40.60
9425;DHT22;17139;52.140;11.636;2022-07-06T02:04:31;15.70;40.70
9425;DHT22;17139;52.140;11.636;2022-07-06T02:06:58;15.60;40.70
9425;DHT22;17139;52.140;11.636;2022-07-06T02:09:26;16.10;42.80
9425;DHT22;17139;52.140;11.636;2022-07-06T02:11:55;15.90;41.00
9425;DHT22;17139;52.140;11.636;2022-07-06T02:14:22;15.70;40.90
9425;DHT22;17139;52.140;11.636;2022-07-06T02:16:49;15.90;42.40
9425;DHT22;17139;52.140;11.636;2022-07-06T02:19:16;15.70;41.00
9425;DHT22;17139;52.140;11.636;2022-07-06T02:21:43;15.60;41.10
9425;DHT22;17139;52.140;11.636;2022-07-06T02:24:10;15.40;41.60
9425;DHT22;17139;52.140;11.636;2022-07-06T02:26:37;15.30;41.00
9425;DHT22;17139;52.140;11.636;2022-07-06T02:29:05;15.30;41.10
9425;DHT22;17139;52.140;11.636;2022-07-06T02:31:32;15.20;41.00
9425;DHT22;17139;52.140;11.636;2022-07-06T02:33:59;15.10;41.00
9425;DHT22;17139;52.140;11.636;2022-07-06T02:36:26;15.10;41.10
9425;DHT22;17139;52.140;11.636;2022-07-06T02:38:53;15.00;41.20
9425;DHT22;17139;52.140;11.636;2022-07-06T02:41:20;14.90;41.20
9425;DHT22;17139;52.140;11.636;2022-07-06T02:43:47;15.30;43.00
9425;DHT22;17139;52.140;11.636;2022-07-06T02:46:15;15.20;41.40
9425;DHT22;17139;52.140;11.636;2022-07-06T02:48:42;15.00;41.30
9425;DHT22;17139;52.140;11.636;2022-07-06T02:51:09;15.00;41.90
9425;DHT22;17139;52.140;11.636;2022-07-06T02:53:36;14.90;41.40
9425;DHT22;17139;52.140;11.636;2022-07-06T02:56:03;14.80;41.30
9425;DHT22;17139;52.140;11.636;2022-07-06T02:58:30;14.70;41.40
9425;DHT22;17139;52.140;11.636;2022-07-06T03:00:57;14.70;41.40
9425;DHT22;17139;52.140;11.636;2022-07-06T03:03:25;14.60;41.40
9425;DHT22;17139;52.140;11.636;2022-07-06T03:05:52;14.60;41.50
9425;DHT22;17139;52.140;11.636;2022-07-06T03:08:19;14.50;41.40
9425;DHT22;17139;52.140;11.636;2022-07-06T03:10:46;14.50;41.50
9425;DHT22;17139;52.140;11.636;2022-07-06T03:13:13;14.40;41.40
9425;DHT22;17139;52.140;11.636;2022-07-06T03:15:40;14.40;41.50
9425;DHT22;17139;52.140;11.636;2022-07-06T03:18:07;14.30;41.60
9425;DHT22;17139;52.140;11.636;2022-07-06T03:20:35;14.30;41.60
9425;DHT22;17139;52.140;11.636;2022-07-06T03:23:02;14.30;41.60
9425;DHT22;17139;52.140;11.636;2022-07-06T03:25:29;14.20;41.50
9425;DHT22;17139;52.140;11.636;2022-07-06T03:27:58;15.10;44.00
9425;DHT22;17139;52.140;11.636;2022-07-06T03:30:25;14.90;42.00
9425;DHT22;17139;52.140;11.636;2022-07-06T03:32:52;14.60;41.80
9425;DHT22;17139;52.140;11.636;2022-07-06T03:35:19;14.50;41.80
9425;DHT22;17139;52.140;11.636;2022-07-06T03:37:47;14.40;41.70
9425;DHT22;17139;52.140;11.636;2022-07-06T03:40:14;14.30;41.90
9425;DHT22;17139;52.140;11.636;2022-07-06T03:42:41;14.30;41.80
9425;DHT22;17139;52.140;11.636;2022-07-06T03:45:09;14.20;41.80
9425;DHT22;17139;52.140;11.636;2022-07-06T03:47:36;14.20;41.80
9425;DHT22;17139;52.140;11.636;2022-07-06T03:50:04;14.10;41.80
9425;DHT22;17139;52.140;11.636;2022-07-06T03:52:31;14.20;41.90
9425;DHT22;17139;52.140;11.636;2022-07-06T03:54:59;14.90;44.20
9425;DHT22;17139;52.140;11.636;2022-07-06T03:57:26;14.70;42.10
9425;DHT22;17139;52.140;11.636;2022-07-06T03:59:53;14.60;42.00
9425;DHT22;17139;52.140;11.636;2022-07-06T04:02:20;14.90;43.80
9425;DHT22;17139;52.140;11.636;2022-07-06T04:04:47;14.80;42.20
9425;DHT22;17139;52.140;11.636;2022-07-06T04:07:14;14.70;42.10
9425;DHT22;17139;52.140;11.636;2022-07-06T04:09:41;14.60;42.20
9425;DHT22;17139;52.140;11.636;2022-07-06T04:12:09;14.60;42.30
9425;DHT22;17139;52.140;11.636;2022-07-06T04:14:36;14.60;42.20
9425;DHT22;17139;52.140;11.636;2022-07-06T04:17:03;14.60;42.00
9425;DHT22;17139;52.140;11.636;2022-07-06T04:19:51;14.60;42.00
9425;DHT22;17139;52.140;11.636;2022-07-06T04:22:18;14.80;42.00
9425;DHT22;17139;52.140;11.636;2022-07-06T04:24:44;15.90;44.10
9425;DHT22;17139;52.140;11.636;2022-07-06T04:27:13;16.30;43.40
9425;DHT22;17139;52.140;11.636;2022-07-06T04:29:40;16.20;42.20
9425;DHT22;17139;52.140;11.636;2022-07-06T04:32:08;16.10;42.00
9425;DHT22;17139;52.140;11.636;2022-07-06T04:34:35;16.50;42.90
9425;DHT22;17139;52.140;11.636;2022-07-06T04:37:02;16.50;42.00
9425;DHT22;17139;52.140;11.636;2022-07-06T04:39:29;16.50;41.70
9425;DHT22;17139;52.140;11.636;2022-07-06T04:41:57;16.40;41.70
9425;DHT22;17139;52.140;11.636;2022-07-06T04:44:25;16.40;41.80
9425;DHT22;17139;52.140;11.636;2022-07-06T04:46:52;16.40;41.80
9425;DHT22;17139;52.140;11.636;2022-07-06T04:49:19;16.30;41.80
9425;DHT22;17139;52.140;11.636;2022-07-06T04:51:46;16.30;41.80
9425;DHT22;17139;52.140;11.636;2022-07-06T04:54:13;16.30;41.80
9425;DHT22;17139;52.140;11.636;2022-07-06T04:56:40;16.60;42.80
9425;DHT22;17139;52.140;11.636;2022-07-06T04:59:07;17.20;43.10
9425;DHT22;17139;52.140;11.636;2022-07-06T05:01:36;16.90;41.60
9425;DHT22;17139;52.140;11.636;2022-07-06T05:04:03;16.70;41.70
9425;DHT22;17139;52.140;11.636;2022-07-06T05:06:30;16.70;42.40
9425;DHT22;17139;52.140;11.636;2022-07-06T05:08:57;16.50;41.80
9425;DHT22;17139;52.140;11.636;2022-07-06T05:11:25;16.50;42.00
9425;DHT22;17139;52.140;11.636;2022-07-06T05:13:52;16.40;41.90
9425;DHT22;17139;52.140;11.636;2022-07-06T05:16:19;17.20;43.30
9425;DHT22;17139;52.140;11.636;2022-07-06T05:18:48;17.00;41.90
9425;DHT22;17139;52.140;11.636;2022-07-06T05:21:15;16.80;41.90
9425;DHT22;17139;52.140;11.636;2022-07-06T05:23:42;16.70;42.00
9425;DHT22;17139;52.140;11.636;2022-07-06T05:26:09;16.60;42.10
9425;DHT22;17139;52.140;11.636;2022-07-06T05:28:36;16.90;43.30
9425;DHT22;17139;52.140;11.636;2022-07-06T05:31:03;16.90;42.30
9425;DHT22;17139;52.140;11.636;2022-07-06T05:33:30;16.90;42.30
9425;DHT22;17139;52.140;11.636;2022-07-06T05:35:59;17.20;43.20
9425;DHT22;17139;52.140;11.636;2022-07-06T05:38:26;17.40;42.60
9425;DHT22;17139;52.140;11.636;2022-07-06T05:40:53;17.60;42.80
9425;DHT22;17139;52.140;11.636;2022-07-06T05:43:20;18.00;42.70
9425;DHT22;17139;52.140;11.636;2022-07-06T05:45:47;18.40;42.60
9425;DHT22;17139;52.140;11.636;2022-07-06T05:48:14;18.70;42.60
9425;DHT22;17139;52.140;11.636;2022-07-06T05:51:01;19.00;42.40
9425;DHT22;17139;52.140;11.636;2022-07-06T05:53:28;19.20;42.40
9425;DHT22;17139;52.140;11.636;2022-07-06T05:55:55;19.30;42.50
9425;DHT22;17139;52.140;11.636;2022-07-06T05:58:22;19.70;42.70
9425;DHT22;17139;52.140;11.636;2022-07-06T06:00:50;20.00;42.60
9425;DHT22;17139;52.140;11.636;2022-07-06T06:03:18;20.30;42.50
9425;DHT22;17139;52.140;11.636;2022-07-06T06:05:45;20.60;42.30
9425;DHT22;17139;52.140;11.636;2022-07-06T06:08:13;20.80;42.40
9425;DHT22;17139;52.140;11.636;2022-07-06T06:10:40;21.10;42.40
9425;DHT22;17139;52.140;11.636;2022-07-06T06:13:07;21.30;42.30
9425;DHT22;17139;52.140;11.636;2022-07-06T06:15:35;21.60;42.70
9425;DHT22;17139;52.140;11.636;2022-07-06T06:18:02;21.80;41.60
9425;DHT22;17139;52.140;11.636;2022-07-06T06:20:30;21.80;41.30
9425;DHT22;17139;52.140;11.636;2022-07-06T06:22:59;21.80;41.10
9425;DHT22;17139;52.140;11.636;2022-07-06T06:25:31;21.60;40.70
9425;DHT22;17139;52.140;11.636;2022-07-06T06:27:59;21.60;40.50
9425;DHT22;17139;52.140;11.636;2022-07-06T06:30:26;22.40;38.90
9425;DHT22;17139;52.140;11.636;2022-07-06T06:33:05;22.10;39.40
9425;DHT22;17139;52.140;11.636;2022-07-06T06:35:32;22.00;39.70
9425;DHT22;17139;52.140;11.636;2022-07-06T06:38:00;22.80;38.20
9425;DHT22;17139;52.140;11.636;2022-07-06T06:40:27;22.50;38.50
9425;DHT22;17139;52.140;11.636;2022-07-06T06:42:55;22.30;38.80
9425;DHT22;17139;52.140;11.636;2022-07-06T06:45:22;22.20;39.00
9425;DHT22;17139;52.140;11.636;2022-07-06T06:47:50;21.90;38.60
9425;DHT22;17139;52.140;11.636;2022-07-06T06:50:17;22.00;38.70
9425;DHT22;17139;52.140;11.636;2022-07-06T06:52:44;21.90;38.70
9425;DHT22;17139;52.140;11.636;2022-07-06T06:55:11;21.80;38.50
9425;DHT22;17139;52.140;11.636;2022-07-06T06:57:38;21.60;38.40
9425;DHT22;17139;52.140;11.636;2022-07-06T07:00:08;22.00;37.90
9425;DHT22;17139;52.140;11.636;2022-07-06T07:02:35;21.60;38.30
9425;DHT22;17139;52.140;11.636;2022-07-06T07:05:03;21.30;38.80
9425;DHT22;17139;52.140;11.636;2022-07-06T07:07:30;21.60;38.30
9425;DHT22;17139;52.140;11.636;2022-07-06T07:09:57;21.20;38.50
9425;DHT22;17139;52.140;11.636;2022-07-06T07:12:24;20.80;38.90
9425;DHT22;17139;52.140;11.636;2022-07-06T07:14:52;20.60;39.20
9425;DHT22;17139;52.140;11.636;2022-07-06T07:17:20;20.40;39.30
9425;DHT22;17139;52.140;11.636;2022-07-06T07:19:48;20.20;39.50
9425;DHT22;17139;52.140;11.636;2022-07-06T07:22:14;20.10;39.50
9425;DHT22;17139;52.140;11.636;2022-07-06T07:24:42;20.00;39.50
9425;DHT22;17139;52.140;11.636;2022-07-06T07:27:09;20.00;39.60
9425;DHT22;17139;52.140;11.636;2022-07-06T07:29:36;20.20;39.50
9425;DHT22;17139;52.140;11.636;2022-07-06T07:32:03;20.10;39.20
9425;DHT22;17139;52.140;11.636;2022-07-06T07:34:32;20.10;39.60
9425;DHT22;17139;52.140;11.636;2022-07-06T07:36:59;19.90;39.20
9425;DHT22;17139;52.140;11.636;2022-07-06T07:39:26;19.70;39.30
9425;DHT22;17139;52.140;11.636;2022-07-06T07:41:53;19.70;39.40
9425;DHT22;17139;52.140;11.636;2022-07-06T07:44:21;19.60;39.50
9425;DHT22;17139;52.140;11.636;2022-07-06T07:46:48;19.50;39.60
9425;DHT22;17139;52.140;11.636;2022-07-06T07:49:15;19.50;39.60
9425;DHT22;17139;52.140;11.636;2022-07-06T07:51:43;19.60;39.60
9425;DHT22;17139;52.140;11.636;2022-07-06T07:54:12;19.60;39.30
9425;DHT22;17139;52.140;11.636;2022-07-06T07:56:39;19.60;39.20
9425;DHT22;17139;52.140;11.636;2022-07-06T07:59:07;19.30;39.20
9425;DHT22;17139;52.140;11.636;2022-07-06T08:01:34;19.40;39.30
9425;DHT22;17139;52.140;11.636;2022-07-06T08:04:01;19.20;39.10
9425;DHT22;17139;52.140;11.636;2022-07-06T08:06:28;19.10;39.40
9425;DHT22;17139;52.140;11.636;2022-07-06T08:08:57;19.10;39.40
9425;DHT22;17139;52.140;11.636;2022-07-06T08:11:24;19.10;39.50
9425;DHT22;17139;52.140;11.636;2022-07-06T08:13:51;19.10;39.60
9425;DHT22;17139;52.140;11.636;2022-07-06T08:16:18;19.10;39.40
9425;DHT22;17139;52.140;11.636;2022-07-06T08:18:45;19.10;39.30
9425;DHT22;17139;52.140;11.636;2022-07-06T08:21:12;19.20;39.30
9425;DHT22;17139;52.140;11.636;2022-07-06T08:23:39;19.30;39.30
9425;DHT22;17139;52.140;11.636;2022-07-06T08:26:07;19.40;39.10
9425;DHT22;17139;52.140;11.636;2022-07-06T08:28:34;19.50;38.80
9425;DHT22;17139;52.140;11.636;2022-07-06T08:31:01;19.50;39.50
9425;DHT22;17139;52.140;11.636;2022-07-06T08:33:29;19.90;38.50
9425;DHT22;17139;52.140;11.636;2022-07-06T08:35:56;19.80;38.40
9425;DHT22;17139;52.140;11.636;2022-07-06T08:38:23;19.60;38.60
9425;DHT22;17139;52.140;11.636;2022-07-06T08:40:51;19.60;38.10
9425;DHT22;17139;52.140;11.636;2022-07-06T08:43:19;19.70;38.20
9425;DHT22;17139;52.140;11.636;2022-07-06T08:45:49;19.70;38.10
9425;DHT22;17139;52.140;11.636;2022-07-06T08:48:18;19.80;38.40
9425;DHT22;17139;52.140;11.636;2022-07-06T08:50:46;19.80;38.40
9425;DHT22;17139;52.140;11.636;2022-07-06T08:53:13;19.90;38.20
9425;DHT22;17139;52.140;11.636;2022-07-06T08:55:40;20.10;38.20
9425;DHT22;17139;52.140;11.636;2022-07-06T08:58:07;20.20;37.90
9425;DHT22;17139;52.140;11.636;2022-07-06T09:00:37;20.20;37.80
9425;DHT22;17139;52.140;11.636;2022-07-06T09:03:05;20.20;37.60
9425;DHT22;17139;52.140;11.636;2022-07-06T09:05:32;20.40;36.90
9425;DHT22;17139;52.140;11.636;2022-07-06T09:08:02;20.10;37.20
9425;DHT22;17139;52.140;11.636;2022-07-06T09:10:29;19.80;37.70
9425;DHT22;17139;52.140;11.636;2022-07-06T09:13:02;19.70;37.50
9425;DHT22;17139;52.140;11.636;2022-07-06T09:15:30;20.50;36.00
9425;DHT22;17139;52.140;11.636;2022-07-06T09:17:59;20.10;36.60
9425;DHT22;17139;52.140;11.636;2022-07-06T09:20:26;19.90;36.90
9425;DHT22;17139;52.140;11.636;2022-07-06T09:22:57;20.40;36.60
9425;DHT22;17139;52.140;11.636;2022-07-06T09:25:25;20.10;36.90
9425;DHT22;17139;52.140;11.636;2022-07-06T09:27:53;20.10;37.10
9425;DHT22;17139;52.140;11.636;2022-07-06T09:30:22;20.00;37.40
9425;DHT22;17139;52.140;11.636;2022-07-06T09:32:51;20.10;37.40
9425;DHT22;17139;52.140;11.636;2022-07-06T09:35:24;20.70;36.70
9425;DHT22;17139;52.140;11.636;2022-07-06T09:38:03;20.80;37.10
9425;DHT22;17139;52.140;11.636;2022-07-06T09:40:31;20.90;37.20
9425;DHT22;17139;52.140;11.636;2022-07-06T09:43:12;21.30;36.20
9425;DHT22;17139;52.140;11.636;2022-07-06T09:45:42;21.20;36.60
9425;DHT22;17139;52.140;11.636;2022-07-06T09:48:10;20.90;36.90
9425;DHT22;17139;52.140;11.636;2022-07-06T09:50:44;20.80;37.20
9425;DHT22;17139;52.140;11.636;2022-07-06T09:53:12;20.80;37.00
9425;DHT22;17139;52.140;11.636;2022-07-06T09:55:43;20.60;36.60
9425;DHT22;17139;52.140;11.636;2022-07-06T09:58:11;20.60;36.60
9425;DHT22;17139;52.140;11.636;2022-07-06T10:00:38;20.50;36.80
9425;DHT22;17139;52.140;11.636;2022-07-06T10:03:06;20.50;36.90
9425;DHT22;17139;52.140;11.636;2022-07-06T10:05:36;21.10;34.90
9425;DHT22;17139;52.140;11.636;2022-07-06T10:08:06;20.90;35.60
9425;DHT22;17139;52.140;11.636;2022-07-06T10:10:35;20.70;35.80
9425;DHT22;17139;52.140;11.636;2022-07-06T10:13:03;21.30;34.20
9425;DHT22;17139;52.140;11.636;2022-07-06T10:15:32;21.20;35.20
9425;DHT22;17139;52.140;11.636;2022-07-06T10:18:00;21.10;35.50
9425;DHT22;17139;52.140;11.636;2022-07-06T10:20:29;21.10;35.80
9425;DHT22;17139;52.140;11.636;2022-07-06T10:22:59;21.20;35.90
9425;DHT22;17139;52.140;11.636;2022-07-06T10:25:29;21.20;36.00
9425;DHT22;17139;52.140;11.636;2022-07-06T10:27:56;21.10;35.90
9425;DHT22;17139;52.140;11.636;2022-07-06T10:30:24;21.00;35.60
9425;DHT22;17139;52.140;11.636;2022-07-06T10:32:52;20.90;35.70
9425;DHT22;17139;52.140;11.636;2022-07-06T10:35:21;21.30;35.40
9425;DHT22;17139;52.140;11.636;2022-07-06T10:38:03;21.20;35.30
9425;DHT22;17139;52.140;11.636;2022-07-06T10:40:35;21.20;35.40
9425;DHT22;17139;52.140;11.636;2022-07-06T10:43:21;22.00;32.90
9425;DHT22;17139;52.140;11.636;2022-07-06T10:45:51;21.60;34.30
9425;DHT22;17139;52.140;11.636;2022-07-06T10:48:20;21.50;34.90
9425;DHT22;17139;52.140;11.636;2022-07-06T10:50:52;21.40;35.30
9425;DHT22;17139;52.140;11.636;2022-07-06T10:53:22;21.40;35.60
9425;DHT22;17139;52.140;11.636;2022-07-06T10:55:52;21.40;35.70
9425;DHT22;17139;52.140;11.636;2022-07-06T10:58:40;21.30;35.70
9425;DHT22;17139;52.140;11.636;2022-07-06T11:01:10;21.30;35.70
9425;DHT22;17139;52.140;11.636;2022-07-06T11:03:41;21.50;35.60
9425;DHT22;17139;52.140;11.636;2022-07-06T11:06:11;21.50;35.40
9425;DHT22;17139;52.140;11.636;2022-07-06T11:08:50;21.50;35.30
9425;DHT22;17139;52.140;11.636;2022-07-06T11:11:20;21.50;35.00
9425;DHT22;17139;52.140;11.636;2022-07-06T11:13:50;21.40;35.00
9425;DHT22;17139;52.140;11.636;2022-07-06T11:16:17;21.60;35.40
9425;DHT22;17139;52.140;11.636;2022-07-06T11:18:49;21.70;35.20
9425;DHT22;17139;52.140;11.636;2022-07-06T11:21:21;22.00;35.10
9425;DHT22;17139;52.140;11.636;2022-07-06T11:23:50;22.20;34.90
9425;DHT22;17139;52.140;11.636;2022-07-06T11:26:19;22.20;34.80
9425;DHT22;17139;52.140;11.636;2022-07-06T11:28:48;22.10;34.50
9425;DHT22;17139;52.140;11.636;2022-07-06T11:31:15;22.30;33.30
9425;DHT22;17139;52.140;11.636;2022-07-06T11:33:45;22.20;34.10
9425;DHT22;17139;52.140;11.636;2022-07-06T11:36:15;22.10;34.60
9425;DHT22;17139;52.140;11.636;2022-07-06T11:38:43;22.00;34.90
9425;DHT22;17139;52.140;11.636;2022-07-06T11:41:11;22.10;35.10
9425;DHT22;17139;52.140;11.636;2022-07-06T11:43:41;22.10;35.20
9425;DHT22;17139;52.140;11.636;2022-07-06T11:46:22;23.00;33.10
9425;DHT22;17139;52.140;11.636;2022-07-06T11:48:50;22.80;34.30
9425;DHT22;17139;52.140;11.636;2022-07-06T11:51:18;22.70;34.20
9425;DHT22;17139;52.140;11.636;2022-07-06T11:53:46;22.80;34.30
9425;DHT22;17139;52.140;11.636;2022-07-06T11:56:15;22.80;34.30
9425;DHT22;17139;52.140;11.636;2022-07-06T11:58:49;22.90;34.40
9425;DHT22;17139;52.140;11.636;2022-07-06T12:01:16;23.00;34.50
9425;DHT22;17139;52.140;11.636;2022-07-06T12:03:44;23.00;34.40
9425;DHT22;17139;52.140;11.636;2022-07-06T12:06:17;23.00;34.60
9425;DHT22;17139;52.140;11.636;2022-07-06T12:08:46;22.90;34.40
9425;DHT22;17139;52.140;11.636;2022-07-06T12:11:22;22.80;34.50
9425;DHT22;17139;52.140;11.636;2022-07-06T12:13:52;22.80;34.60
9425;DHT22;17139;52.140;11.636;2022-07-06T12:16:20;22.60;34.10
9425;DHT22;17139;52.140;11.636;2022-07-06T12:18:49;22.50;34.50
9425;DHT22;17139;52.140;11.636;2022-07-06T12:21:18;22.50;34.70
9425;DHT22;17139;52.140;11.636;2022-07-06T12:23:49;22.60;34.80
9425;DHT22;17139;52.140;11.636;2022-07-06T12:26:17;22.80;34.30
9425;DHT22;17139;52.140;11.636;2022-07-06T12:28:45;22.90;34.10
9425;DHT22;17139;52.140;11.636;2022-07-06T12:31:31;22.90;33.90
9425;DHT22;17139;52.140;11.636;2022-07-06T12:33:59;22.90;33.60
9425;DHT22;17139;52.140;11.636;2022-07-06T12:36:26;23.60;30.60
9425;DHT22;17139;52.140;11.636;2022-07-06T12:38:54;23.20;32.10
9425;DHT22;17139;52.140;11.636;2022-07-06T12:41:29;22.80;32.70
9425;DHT22;17139;52.140;11.636;2022-07-06T12:44:03;22.70;33.90
9425;DHT22;17139;52.140;11.636;2022-07-06T12:46:33;22.70;33.50
9425;DHT22;17139;52.140;11.636;2022-07-06T12:49:03;22.60;33.70
9425;DHT22;17139;52.140;11.636;2022-07-06T12:51:55;22.60;34.00
9425;DHT22;17139;52.140;11.636;2022-07-06T12:54:24;22.70;33.90
9425;DHT22;17139;52.140;11.636;2022-07-06T12:56:59;22.60;34.20
9425;DHT22;17139;52.140;11.636;2022-07-06T12:59:27;22.70;34.10
9425;DHT22;17139;52.140;11.636;2022-07-06T13:01:56;22.60;34.10
9425;DHT22;17139;52.140;11.636;2022-07-06T13:04:24;22.40;34.00
9425;DHT22;17139;52.140;11.636;2022-07-06T13:06:52;23.00;31.80
9425;DHT22;17139;52.140;11.636;2022-07-06T13:09:20;22.80;32.80
9425;DHT22;17139;52.140;11.636;2022-07-06T13:11:49;22.70;33.50
9425;DHT22;17139;52.140;11.636;2022-07-06T13:14:17;23.40;31.40
9425;DHT22;17139;52.140;11.636;2022-07-06T13:16:46;23.10;32.30
9425;DHT22;17139;52.140;11.636;2022-07-06T13:19:15;23.00;32.90
9425;DHT22;17139;52.140;11.636;2022-07-06T13:21:42;22.90;33.10
9425;DHT22;17139;52.140;11.636;2022-07-06T13:24:10;22.90;33.20
9425;DHT22;17139;52.140;11.636;2022-07-06T13:26:37;23.00;33.30
9425;DHT22;17139;52.140;11.636;2022-07-06T13:29:04;23.00;33.30
9425;DHT22;17139;52.140;11.636;2022-07-06T13:31:32;22.80;34.00
9425;DHT22;17139;52.140;11.636;2022-07-06T13:33:59;23.30;31.50
9425;DHT22;17139;52.140;11.636;2022-07-06T13:36:27;23.20;31.70
9425;DHT22;17139;52.140;11.636;2022-07-06T13:38:55;22.80;32.40
9425;DHT22;17139;52.140;11.636;2022-07-06T13:41:22;22.60;33.00
9425;DHT22;17139;52.140;11.636;2022-07-06T13:43:49;22.80;32.30
9425;DHT22;17139;52.140;11.636;2022-07-06T13:46:17;22.80;32.80
9425;DHT22;17139;52.140;11.636;2022-07-06T13:48:44;22.60;32.90
9425;DHT22;17139;52.140;11.636;2022-07-06T13:51:11;22.60;33.00
9425;DHT22;17139;52.140;11.636;2022-07-06T13:53:39;22.50;33.20
9425;DHT22;17139;52.140;11.636;2022-07-06T13:56:07;22.60;33.40
9425;DHT22;17139;52.140;11.636;2022-07-06T13:58:34;22.70;33.30
9425;DHT22;17139;52.140;11.636;2022-07-06T14:01:02;22.60;33.30
9425;DHT22;17139;52.140;11.636;2022-07-06T14:03:29;22.60;33.40
9425;DHT22;17139;52.140;11.636;2022-07-06T14:05:57;22.70;33.50
9425;DHT22;17139;52.140;11.636;2022-07-06T14:08:24;23.20;31.40
9425;DHT22;17139;52.140;11.636;2022-07-06T14:10:54;23.00;32.50
9425;DHT22;17139;52.140;11.636;2022-07-06T14:13:21;22.90;32.90
9425;DHT22;17139;52.140;11.636;2022-07-06T14:15:49;23.50;31.40
9425;DHT22;17139;52.140;11.636;2022-07-06T14:18:16;23.30;32.30
9425;DHT22;17139;52.140;11.636;2022-07-06T14:20:44;23.10;32.60
9425;DHT22;17139;52.140;11.636;2022-07-06T14:23:11;23.00;32.70
9425;DHT22;17139;52.140;11.636;2022-07-06T14:25:40;23.10;33.10
9425;DHT22;17139;52.140;11.636;2022-07-06T14:28:09;23.10;33.00
9425;DHT22;17139;52.140;11.636;2022-07-06T14:30:36;23.10;32.90
9425;DHT22;17139;52.140;11.636;2022-07-06T14:33:04;23.00;33.00
9425;DHT22;17139;52.140;11.636;2022-07-06T14:35:34;22.80;33.00
9425;DHT22;17139;52.140;11.636;2022-07-06T14:38:02;22.70;33.30
9425;DHT22;17139;52.140;11.636;2022-07-06T14:40:29;22.70;33.40
9425;DHT22;17139;52.140;11.636;2022-07-06T14:42:57;22.60;33.40
9425;DHT22;17139;52.140;11.636;2022-07-06T14:45:26;22.60;33.60
9425;DHT22;17139;52.140;11.636;2022-07-06T14:47:53;23.30;31.50
9425;DHT22;17139;52.140;11.636;2022-07-06T14:50:20;22.90;32.50
9425;DHT22;17139;52.140;11.636;2022-07-06T14:52:49;22.60;32.90
9425;DHT22;17139;52.140;11.636;2022-07-06T14:55:16;22.50;33.10
9425;DHT22;17139;52.140;11.636;2022-07-06T14:57:44;22.30;33.50
9425;DHT22;17139;52.140;11.636;2022-07-06T15:00:12;22.40;33.90
9425;DHT22;17139;52.140;11.636;2022-07-06T15:02:42;22.40;33.90
9425;DHT22;17139;52.140;11.636;2022-07-06T15:05:10;22.40;34.00
9425;DHT22;17139;52.140;11.636;2022-07-06T15:07:38;22.30;33.80
9425;DHT22;17139;52.140;11.636;2022-07-06T15:10:07;22.40;34.00
9425;DHT22;17139;52.140;11.636;2022-07-06T15:12:35;22.40;33.90
9425;DHT22;17139;52.140;11.636;2022-07-06T15:15:03;22.40;33.50
9425;DHT22;17139;52.140;11.636;2022-07-06T15:17:30;22.40;33.80
9425;DHT22;17139;52.140;11.636;2022-07-06T15:20:00;22.50;33.60
9425;DHT22;17139;52.140;11.636;2022-07-06T15:22:27;22.50;33.40
9425;DHT22;17139;52.140;11.636;2022-07-06T15:24:55;22.40;33.60
9425;DHT22;17139;52.140;11.636;2022-07-06T15:27:22;22.40;33.70
9425;DHT22;17139;52.140;11.636;2022-07-06T15:29:49;22.30;34.00
9425;DHT22;17139;52.140;11.636;2022-07-06T15:32:17;22.20;33.90
9425;DHT22;17139;52.140;11.636;2022-07-06T15:34:44;22.20;33.90
9425;DHT22;17139;52.140;11.636;2022-07-06T15:37:13;22.20;33.90